Time;durP1;ratioP1;P1;durP2;ratioP2;P2;SDS_P1;SDS_P2;PMS_P1;PMS_P2;Temp;Humidity;BMP_temperature;BMP_pressure;BME280_temperature;BME280_humidity;BME280_pressure;Samples;Min_cycle;Max_cycle;Signal;HPM_P1;HPM_P2
2022/03/20 00:00:35;;;;;;;14.82;7.35;;;;;;;-6.97;65.35;95398.94;5113152;28;20077;-41
2022/03/20 00:03:12;;;;;;;17.38;8.43;;;;;;;-6.91;65.04;95393.94;5113156;28;20023;-42
2022/03/20 00:05:39;;;;;;;12.68;6.85;;;;;;;-6.73;66.98;95395.41;5113324;28;20077;-44
2022/03/20 00:08:11;;;;;;;14.93;7.88;;;;;;;-6.62;66.06;95388.06;5113337;28;20023;-43
2022/03/20 00:10:38;;;;;;;17.80;9.52;;;;;;;-6.43;65.50;95389.50;5105775;28;20048;-42
2022/03/20 00:13:06;;;;;;;33.17;16.17;;;;;;;-6.42;64.22;95396.41;5092545;28;20482;-42
2022/03/20 00:15:32;;;;;;;;;;;;;;;-6.22;63.20;95390.13;5093329;28;20489;-42
2022/03/20 00:17:57;;;;;;;27.35;15.15;;;;;;;-6.18;62.97;95388.19;5092448;28;19961;-41
2022/03/20 00:20:22;;;;;;;27.25;16.42;;;;;;;-6.20;63.11;95387.03;5092453;28;20017;-42
2022/03/20 00:22:48;;;;;;;34.33;17.83;;;;;;;-6.30;63.04;95377.88;5092678;28;20020;-41
2022/03/20 00:25:13;;;;;;;35.00;16.95;;;;;;;-6.39;63.81;95377.56;5092327;28;20048;-42
2022/03/20 00:27:39;;;;;;;28.70;15.23;;;;;;;-6.65;63.89;95383.47;5091309;28;20031;-42
2022/03/20 00:30:05;;;;;;;31.35;13.63;;;;;;;-6.57;65.79;95379.59;5092393;28;20088;-41
2022/03/20 00:32:30;;;;;;;21.88;10.30;;;;;;;-6.54;65.73;95383.44;5092571;28;20030;-41
2022/03/20 00:34:59;;;;;;;21.90;11.05;;;;;;;-6.59;65.30;95381.91;5092368;28;20467;-42
2022/03/20 00:37:25;;;;;;;21.30;12.00;;;;;;;-6.79;64.92;95347.84;5092424;28;20020;-42
2022/03/20 00:39:50;;;;;;;42.88;20.60;;;;;;;-6.54;65.00;95362.66;5093021;28;20035;-43
2022/03/20 00:42:16;;;;;;;29.70;15.20;;;;;;;-6.52;64.64;95360.34;5112633;28;20047;-43
2022/03/20 00:44:41;;;;;;;34.75;17.98;;;;;;;-6.80;64.52;95357.09;5112340;28;20027;-43
2022/03/20 00:47:07;;;;;;;50.20;25.52;;;;;;;-6.70;65.05;95361.63;5112553;28;20031;-43
2022/03/20 00:49:32;;;;;;;48.15;24.67;;;;;;;-6.61;66.37;95362.72;5112604;28;20030;-43
2022/03/20 00:51:58;;;;;;;49.67;27.33;;;;;;;-6.66;66.15;95365.81;5112327;28;20019;-43
2022/03/20 00:54:23;;;;;;;43.78;22.67;;;;;;;-6.71;65.68;95357.41;5112119;28;20016;-42
2022/03/20 00:56:48;;;;;;;42.70;19.75;;;;;;;-7.00;66.30;95349.50;5093315;27;20050;-42
2022/03/20 00:59:14;;;;;;;38.53;16.75;;;;;;;-6.83;65.61;95355.94;5091973;28;20020;-42
2022/03/20 01:01:41;;;;;;;22.90;12.25;;;;;;;-7.04;65.62;95359.47;5091894;28;20021;-42
2022/03/20 01:04:07;;;;;;;25.65;13.70;;;;;;;-7.05;66.05;95355.25;5091494;28;20077;-42
2022/03/20 01:06:32;;;;;;;39.10;18.75;;;;;;;-6.93;65.14;95352.13;5091852;28;20107;-42
2022/03/20 01:08:58;;;;;;;33.85;16.02;;;;;;;-7.00;65.28;95341.44;5091766;28;20120;-41
2022/03/20 01:11:24;;;;;;;33.92;16.95;;;;;;;-7.11;65.64;95338.03;5105308;28;20055;-42
2022/03/20 01:13:49;;;;;;;27.13;14.48;;;;;;;-6.92;64.82;95339.47;5111786;28;20023;-42
2022/03/20 01:16:14;;;;;;;31.35;16.40;;;;;;;-7.02;65.47;95343.72;5111999;28;20039;-42
2022/03/20 01:18:40;;;;;;;22.15;13.68;;;;;;;-7.12;65.83;95341.09;5111686;28;20412;-43
2022/03/20 01:21:07;;;;;;;25.02;12.57;;;;;;;-7.14;64.83;95344.19;5111943;28;20651;-41
2022/03/20 01:23:33;;;;;;;30.33;13.70;;;;;;;-7.33;66.30;95349.22;5111637;28;20019;-43
2022/03/20 01:25:59;;;;;;;20.83;12.63;;;;;;;-7.54;67.09;95352.75;5111762;28;20028;-43
2022/03/20 01:28:24;;;;;;;19.08;10.70;;;;;;;-7.65;67.13;95346.63;5110235;28;20026;-43
2022/03/20 01:30:50;;;;;;;20.90;11.63;;;;;;;-7.48;66.72;95343.16;5111603;28;20076;-42
2022/03/20 01:33:16;;;;;;;19.85;10.77;;;;;;;-7.33;66.64;95347.31;5111643;28;20106;-42
2022/03/20 01:35:42;;;;;;;25.70;13.43;;;;;;;-7.59;66.87;95320.94;5111599;28;20413;-42
2022/03/20 01:38:07;;;;;;;23.58;13.68;;;;;;;-7.46;66.98;95348.09;5111032;27;20039;-42
2022/03/20 01:40:34;;;;;;;26.23;13.88;;;;;;;-7.41;67.21;95337.00;5111152;28;20047;-42
2022/03/20 01:42:59;;;;;;;30.05;15.27;;;;;;;-7.49;67.08;95344.28;5111471;28;20018;-43
2022/03/20 01:45:25;;;;;;;22.05;11.63;;;;;;;-7.49;66.83;95346.97;5111154;28;20020;-44
2022/03/20 01:47:51;;;;;;;25.15;14.05;;;;;;;-7.61;66.75;95346.63;5111366;28;20098;-43
2022/03/20 01:50:22;;;;;;;21.10;12.05;;;;;;;-7.68;67.92;95351.97;5111338;28;20023;-43
2022/03/20 01:52:49;;;;;;;16.58;10.73;;;;;;;-7.87;68.02;95345.91;5110975;28;20093;-43
2022/03/20 01:55:16;;;;;;;34.90;17.63;;;;;;;-7.91;68.37;95339.78;5105774;28;20451;-42
2022/03/20 01:57:44;;;;;;;46.17;21.35;;;;;;;-7.88;68.82;95347.03;5090407;28;20056;-42
2022/03/20 02:00:11;;;;;;;31.77;17.17;;;;;;;-7.78;68.30;95350.88;5090867;28;20024;-43
2022/03/20 02:02:37;;;;;;;25.75;14.07;;;;;;;-8.01;68.73;95345.16;5090855;28;20074;-43
2022/03/20 02:05:04;;;;;;;38.22;14.57;;;;;;;-8.01;69.03;95342.47;5090796;28;20521;-43
2022/03/20 02:07:30;;;;;;;27.23;12.85;;;;;;;-7.84;68.63;95345.09;5089628;28;20044;-43
2022/03/20 02:09:56;;;;;;;17.85;9.85;;;;;;;-7.89;68.58;95342.84;5092132;28;20070;-43
2022/03/20 02:12:22;;;;;;;14.48;7.93;;;;;;;-7.57;68.26;95345.47;5109846;28;20080;-42
2022/03/20 02:14:47;;;;;;;13.35;7.72;;;;;;;-7.58;67.04;95346.63;5110992;28;20027;-42
2022/03/20 02:17:13;;;;;;;12.82;7.13;;;;;;;-7.68;66.79;95350.06;5109838;28;20100;-42
2022/03/20 02:19:39;;;;;;;13.23;7.05;;;;;;;-7.52;66.33;95344.31;5110952;28;20020;-42
2022/03/20 02:22:05;;;;;;;16.33;7.55;;;;;;;-7.46;67.74;95340.06;5110611;28;20106;-42
2022/03/20 02:24:42;;;;;;;22.48;10.80;;;;;;;-7.41;67.04;95332.41;5110575;28;20076;-42
2022/03/20 02:27:17;;;;;;;28.83;12.27;;;;;;;-7.44;66.56;95335.84;5110833;28;20027;-42
2022/03/20 02:29:44;;;;;;;34.65;14.23;;;;;;;-7.65;67.36;95343.19;5110558;28;20077;-42
2022/03/20 02:32:12;;;;;;;9.25;6.50;;;;;;;-7.94;68.91;95332.50;5110790;28;20389;-42
2022/03/20 02:34:38;;;;;;;10.93;5.40;;;;;;;-7.89;67.90;95324.06;5110360;28;20036;-42
2022/03/20 02:37:05;;;;;;;12.85;6.00;;;;;;;-8.04;68.34;95338.63;5110788;28;20454;-43
2022/03/20 02:39:31;;;;;;;12.90;6.60;;;;;;;-8.21;68.76;95339.41;5110762;28;20027;-43
2022/03/20 02:42:00;;;;;;;18.70;7.22;;;;;;;-8.05;68.36;95321.00;5110375;28;20379;-42
2022/03/20 02:44:48;;;;;;;8.75;5.68;;;;;;;-8.02;69.00;95333.66;5110478;28;20477;-43
2022/03/20 02:47:13;;;;;;;13.50;7.97;;;;;;;-8.07;69.30;95317.97;5110784;28;20019;-43
2022/03/20 02:49:39;;;;;;;16.75;9.70;;;;;;;-7.94;69.03;95329.81;5110668;28;20027;-42
2022/03/20 02:52:04;;;;;;;19.38;10.27;;;;;;;-7.89;68.14;95323.31;5114214;28;20024;-42
2022/03/20 02:54:31;;;;;;;20.45;11.77;;;;;;;-7.93;67.75;95315.28;5114713;28;20053;-42
2022/03/20 02:56:57;;;;;;;21.77;10.25;;;;;;;-8.15;69.26;95321.81;5094485;28;20048;-43
2022/03/20 02:59:22;;;;;;;23.13;10.18;;;;;;;-8.02;69.34;95314.91;5094369;28;20047;-43
2022/03/20 03:01:48;;;;;;;17.42;8.80;;;;;;;-7.75;68.80;95317.91;5093911;28;20085;-43
2022/03/20 03:04:13;;;;;;;13.43;8.35;;;;;;;-7.77;68.09;95307.56;5094225;28;20082;-43
2022/03/20 03:06:39;;;;;;;14.55;7.97;;;;;;;-7.87;68.90;95313.72;5094132;28;20020;-43
2022/03/20 03:11:48;;;;;;;19.55;10.07;;;;;;;-7.91;69.81;95312.19;5111104;28;20106;-42
2022/03/20 03:16:57;;;;;;;23.08;12.30;;;;;;;-7.91;69.86;95315.66;5113314;28;20531;-43
2022/03/20 03:19:23;;;;;;;41.03;13.68;;;;;;;-7.93;70.41;95301.88;5113990;28;20020;-43
2022/03/20 03:21:48;;;;;;;23.55;11.98;;;;;;;-8.17;70.30;95297.31;5114192;28;20020;-42
2022/03/20 03:24:14;;;;;;;34.25;13.52;;;;;;;-8.19;70.66;95298.84;5113948;28;20095;-43
2022/03/20 03:26:39;;;;;;;16.33;9.85;;;;;;;-8.26;71.11;95306.91;5113835;28;20027;-43
2022/03/20 03:29:05;;;;;;;31.40;14.10;;;;;;;-8.19;71.57;95304.97;5114155;28;20027;-43
2022/03/20 03:31:31;;;;;;;12.40;8.70;;;;;;;-8.20;71.47;95306.09;5113654;28;20036;-42
2022/03/20 03:36:41;;;;;;;25.77;9.63;;;;;;;-8.09;70.50;95298.03;5113910;28;20034;-42
2022/03/20 03:39:09;;;;;;;14.07;8.18;;;;;;;-8.30;71.40;95311.50;5113949;28;20102;-42
2022/03/20 03:41:36;;;;;;;18.30;11.00;;;;;;;-8.37;71.93;95317.63;5113566;27;20027;-42
2022/03/20 03:44:01;;;;;;;8.05;5.40;;;;;;;-8.11;69.86;95308.38;5113525;28;20113;-43
2022/03/20 03:46:27;;;;;;;10.88;5.78;;;;;;;-7.74;67.86;95296.09;5113783;28;20040;-42
2022/03/20 03:48:52;;;;;;;9.55;5.45;;;;;;;-7.33;67.14;95308.97;5113357;28;20528;-42
2022/03/20 03:51:18;;;;;;;16.75;6.88;;;;;;;-7.27;66.91;95304.72;5113305;28;20023;-42
2022/03/20 03:53:43;;;;;;;12.32;6.72;;;;;;;-7.22;67.31;95310.47;5113341;28;20023;-42
2022/03/20 03:56:08;;;;;;;14.90;7.90;;;;;;;-7.11;66.57;95313.88;5100119;28;20024;-42
2022/03/20 03:58:34;;;;;;;21.88;8.77;;;;;;;-7.13;66.81;95310.81;5092805;28;20040;-43
2022/03/20 04:01:00;;;;;;;20.90;8.88;;;;;;;-7.11;66.53;95313.13;5092830;28;20023;-43
2022/03/20 04:03:26;;;;;;;15.77;8.18;;;;;;;-7.11;66.57;95307.75;5091753;28;20106;-43
2022/03/20 04:05:52;;;;;;;13.20;6.45;;;;;;;-6.98;65.38;95308.84;5092727;28;20031;-43
2022/03/20 04:08:18;;;;;;;17.88;7.70;;;;;;;-7.04;66.86;95307.72;5092700;28;20023;-43
2022/03/20 04:10:43;;;;;;;15.80;8.13;;;;;;;-7.12;67.27;95304.28;5101064;28;20039;-42
2022/03/20 04:13:09;;;;;;;18.90;10.13;;;;;;;-7.05;66.68;95309.63;5113007;28;20100;-42
2022/03/20 04:15:34;;;;;;;21.05;9.38;;;;;;;-7.00;66.21;95309.22;5112932;28;20034;-42
2022/03/20 04:18:01;;;;;;;13.77;7.78;;;;;;;-6.96;65.89;95309.97;5112855;27;20019;-42
2022/03/20 04:20:27;;;;;;;19.30;8.63;;;;;;;-6.99;66.43;95308.06;5113166;28;20022;-42
2022/03/20 04:25:40;;;;;;;11.48;6.30;;;;;;;-7.02;65.99;95324.19;5113109;28;20037;-42
2022/03/20 04:28:06;;;;;;;10.90;6.65;;;;;;;-7.16;67.00;95298.19;5092602;28;20028;-42
2022/03/20 04:30:33;;;;;;;9.30;6.47;;;;;;;-7.09;66.49;95322.31;5092405;28;20020;-42
2022/03/20 04:32:58;;;;;;;19.52;6.60;;;;;;;-6.84;65.61;95324.84;5092220;28;20020;-42
2022/03/20 04:35:24;;;;;;;12.55;6.95;;;;;;;-7.06;65.21;95305.41;5107900;28;20020;-42
2022/03/20 04:37:54;;;;;;;10.27;6.50;;;;;;;-7.14;66.79;95332.66;5092326;28;20017;-42
2022/03/20 04:40:20;;;;;;;12.35;8.48;;;;;;;-7.13;66.96;95321.56;5096809;28;20020;-42
2022/03/20 04:42:45;;;;;;;11.07;6.88;;;;;;;-7.23;67.45;95340.38;5111261;28;20068;-42
2022/03/20 04:45:12;;;;;;;13.27;7.70;;;;;;;-7.10;68.12;95336.09;5112329;28;20024;-42
2022/03/20 04:58:35;;;;;;;18.23;10.43;;;;;;;-6.85;67.57;95334.09;5091572;28;20055;-42
2022/03/20 05:01:00;;;;;;;17.52;10.77;;;;;;;-6.75;65.92;95335.94;5091953;28;20016;-42
2022/03/20 05:03:27;;;;;;;18.98;10.70;;;;;;;-6.70;66.03;95348.19;5091721;28;20027;-42
2022/03/20 05:05:53;;;;;;;28.15;9.55;;;;;;;-6.72;66.34;95329.03;5091597;28;20059;-42
2022/03/20 05:08:18;;;;;;;14.43;9.63;;;;;;;-6.55;67.43;95334.28;5091562;28;20055;-41
2022/03/20 05:13:28;;;;;;;28.27;16.10;;;;;;;-6.85;66.77;95352.88;5111710;28;20042;-42
2022/03/20 05:15:57;;;;;;;45.88;20.95;;;;;;;-6.63;66.35;95350.84;5112040;28;20110;-42
2022/03/20 05:18:23;;;;;;;26.45;16.77;;;;;;;-6.57;66.45;95323.19;5112008;28;20023;-42
2022/03/20 05:20:49;;;;;;;24.70;13.45;;;;;;;-6.45;66.27;95351.50;5111965;28;20443;-41
2022/03/20 05:23:15;;;;;;;18.95;12.32;;;;;;;-6.40;66.26;95333.03;5111486;28;20565;-42
2022/03/20 05:25:40;;;;;;;44.30;19.73;;;;;;;-5.89;64.50;95348.38;5111812;28;20027;-42
2022/03/20 05:28:06;;;;;;;43.40;17.52;;;;;;;-5.64;61.87;95346.22;5111831;28;20031;-42
2022/03/20 05:30:32;;;;;;;58.97;21.75;;;;;;;-5.44;63.48;95351.81;5111643;28;20473;-43
2022/03/20 05:32:57;;;;;;;85.20;30.80;;;;;;;-5.26;63.25;95357.00;5111747;28;20032;-42
2022/03/20 05:35:23;;;;;;;43.47;19.10;;;;;;;-5.21;61.33;95359.25;5110156;28;20482;-42
2022/03/20 05:37:49;;;;;;;93.80;34.33;;;;;;;-5.20;63.30;95345.41;5111583;28;20024;-42
2022/03/20 05:40:15;;;;;;;44.90;17.23;;;;;;;-5.03;62.88;95360.59;5105421;28;20485;-42
2022/03/20 05:42:42;;;;;;;46.90;16.65;;;;;;;-4.63;62.20;95346.22;5091136;28;20051;-41
2022/03/20 05:45:10;;;;;;;68.65;22.67;;;;;;;-4.00;59.53;95349.94;5091185;28;20067;-42
2022/03/20 05:47:37;;;;;;;26.02;9.32;;;;;;;-3.35;57.23;95350.41;5091157;28;20043;-42
2022/03/20 05:50:03;;;;;;;13.27;7.25;;;;;;;-3.04;55.06;95356.41;5090660;28;20549;-42
2022/03/20 05:52:31;;;;;;;16.67;7.72;;;;;;;-2.69;54.71;95351.09;5090652;28;20569;-42
2022/03/20 05:54:58;;;;;;;18.25;7.93;;;;;;;-2.41;53.01;95347.78;5093623;28;20024;-42
2022/03/20 06:00:16;;;;;;;9.98;6.32;;;;;;;-1.09;50.09;95346.94;5111344;28;20545;-42
2022/03/20 06:02:43;;;;;;;13.75;7.63;;;;;;;-0.29;47.91;95350.50;5111243;28;20048;-42
2022/03/20 06:05:09;;;;;;;8.10;5.20;;;;;;;0.15;46.15;95357.72;5111142;28;20098;-42
2022/03/20 06:07:40;;;;;;;9.45;5.60;;;;;;;0.95;45.44;95345.38;5110408;28;20043;-42
2022/03/20 06:10:08;;;;;;;8.48;6.10;;;;;;;1.82;42.37;95348.84;5110379;28;20028;-43
2022/03/20 06:12:34;;;;;;;7.20;4.43;;;;;;;1.53;39.49;95360.03;5111069;28;20035;-42
2022/03/20 06:14:59;;;;;;;7.43;5.68;;;;;;;1.11;42.16;95347.16;5110739;28;20036;-42
2022/03/20 06:17:25;;;;;;;8.05;5.07;;;;;;;0.92;43.37;95350.94;5110731;28;20027;-42
2022/03/20 06:19:52;;;;;;;22.33;9.52;;;;;;;0.93;43.69;95355.94;5096002;28;20035;-43
2022/03/20 06:22:17;;;;;;;38.72;15.05;;;;;;;1.08;42.57;95362.41;5090338;28;20035;-42
2022/03/20 06:24:43;;;;;;;6.93;5.10;;;;;;;0.93;42.04;95357.91;5089772;28;20157;-42
2022/03/20 06:27:09;;;;;;;11.55;5.78;;;;;;;1.60;43.21;95361.75;5090538;28;20505;-42
2022/03/20 06:29:34;;;;;;;19.00;8.38;;;;;;;2.22;40.68;95368.72;5090200;28;20028;-42
2022/03/20 06:32:00;;;;;;;23.85;10.82;;;;;;;3.07;39.15;95349.66;5090109;28;20028;-42
2022/03/20 06:34:26;;;;;;;18.75;10.75;;;;;;;3.85;37.01;95357.94;5090538;28;20085;-43
2022/03/20 06:36:55;;;;;;;26.70;12.40;;;;;;;4.58;35.57;95368.63;5090404;28;20071;-43
2022/03/20 06:39:21;;;;;;;28.70;11.65;;;;;;;5.51;34.94;95360.88;5090124;28;20509;-42
2022/03/20 06:41:47;;;;;;;21.35;11.10;;;;;;;6.36;31.77;95375.59;5107087;28;20026;-42
2022/03/20 06:44:15;;;;;;;23.02;11.43;;;;;;;7.27;31.13;95375.91;5110780;28;20051;-43
2022/03/20 06:46:41;;;;;;;7.32;4.97;;;;;;;6.68;29.79;95371.84;5110710;28;20031;-42
2022/03/20 06:49:08;;;;;;;15.57;9.18;;;;;;;7.03;29.05;95375.34;5110468;28;20520;-43
2022/03/20 06:51:34;;;;;;;13.93;8.15;;;;;;;7.06;30.32;95368.88;5110647;28;20023;-43
2022/03/20 06:53:59;;;;;;;13.95;8.75;;;;;;;7.83;28.39;95368.28;5110638;28;20039;-44
2022/03/20 06:56:27;;;;;;;11.82;6.72;;;;;;;9.02;27.23;95366.28;5110503;28;20515;-44
2022/03/20 06:58:53;;;;;;;7.05;5.25;;;;;;;8.33;26.74;95370.31;5110296;28;20043;-43
2022/03/20 07:01:18;;;;;;;5.68;4.75;;;;;;;8.43;26.01;95367.34;5110625;28;20020;-43
2022/03/20 07:03:44;;;;;;;8.25;6.15;;;;;;;7.81;26.56;95368.03;5110610;28;20016;-42
2022/03/20 07:06:09;;;;;;;6.93;4.80;;;;;;;8.68;26.39;95370.09;5110568;28;20420;-43
2022/03/20 07:08:35;;;;;;;8.80;5.72;;;;;;;9.37;25.05;95370.72;5110566;28;20024;-43
2022/03/20 07:11:00;;;;;;;7.82;5.20;;;;;;;9.50;23.57;95363.53;5099446;28;20485;-43
2022/03/20 07:16:14;;;;;;;7.15;5.38;;;;;;;10.68;24.01;95366.75;5105147;28;20031;-43
2022/03/20 07:18:40;;;;;;;6.72;5.07;;;;;;;9.56;22.26;95349.75;5109218;28;20028;-42
2022/03/20 07:21:06;;;;;;;9.10;6.30;;;;;;;8.59;25.93;95351.00;5110511;28;20019;-43
2022/03/20 07:23:32;;;;;;;12.35;6.05;;;;;;;9.32;24.75;95360.41;5110070;28;20020;-43
2022/03/20 07:31:25;;;;;;;8.45;4.93;;;;;;;10.30;23.48;95355.69;5110146;28;20038;-44
2022/03/20 07:33:51;;;;;;;7.68;5.95;;;;;;;11.82;23.25;95353.66;5110067;28;20020;-43
2022/03/20 07:36:18;;;;;;;14.55;9.98;;;;;;;12.05;20.50;95355.78;5110889;28;20024;-43
2022/03/20 07:38:45;;;;;;;11.93;8.48;;;;;;;9.69;21.33;95356.31;5113642;28;20015;-45
2022/03/20 07:41:10;;;;;;;6.55;4.28;;;;;;;10.11;22.54;95360.97;5113542;28;20282;-44
2022/03/20 07:43:36;;;;;;;7.60;5.45;;;;;;;10.32;22.85;95359.47;5113870;28;20020;-43
2022/03/20 07:46:01;;;;;;;7.22;4.90;;;;;;;9.78;21.42;95358.09;5113503;28;20028;-44
2022/03/20 07:48:27;;;;;;;14.20;7.88;;;;;;;9.22;23.71;95343.34;5113899;28;20027;-43
2022/03/20 07:50:53;;;;;;;5.85;4.45;;;;;;;9.65;21.64;95349.53;5113301;28;20023;-42
2022/03/20 07:53:19;;;;;;;18.85;10.45;;;;;;;9.06;22.17;95341.25;5113667;28;20031;-43
2022/03/20 07:55:47;;;;;;;11.70;6.68;;;;;;;8.86;22.51;95353.16;5103614;28;20051;-43
2022/03/20 07:58:17;;;;;;;11.32;7.18;;;;;;;8.72;23.66;95351.34;5092766;28;20040;-43
2022/03/20 08:00:42;;;;;;;13.63;9.50;;;;;;;8.54;24.01;95351.69;5092824;28;20028;-42
2022/03/20 08:03:07;;;;;;;11.18;7.25;;;;;;;8.37;22.37;95345.31;5092911;28;20031;-43
2022/03/20 08:05:33;;;;;;;9.77;5.82;;;;;;;9.44;24.41;95337.91;5092723;28;20020;-43
2022/03/20 08:08:02;;;;;;;7.95;4.90;;;;;;;10.01;22.75;95331.28;5093038;28;20036;-42
2022/03/20 08:10:28;;;;;;;8.07;5.55;;;;;;;10.30;22.77;95328.84;5098946;28;20036;-43
2022/03/20 08:12:53;;;;;;;6.88;4.97;;;;;;;11.48;21.38;95328.09;5112858;28;20480;-42
2022/03/20 08:15:19;;;;;;;9.32;5.15;;;;;;;12.33;20.65;95327.13;5113021;28;20027;-42
2022/03/20 08:17:45;;;;;;;14.55;7.97;;;;;;;12.18;20.58;95319.19;5112911;28;20024;-42
2022/03/20 08:20:12;;;;;;;5.65;4.90;;;;;;;11.93;19.82;95320.38;5113127;28;20473;-43
2022/03/20 08:22:37;;;;;;;6.85;4.70;;;;;;;11.73;20.38;95324.25;5113122;28;20098;-42
2022/03/20 08:25:03;;;;;;;7.07;4.65;;;;;;;11.61;21.62;95322.75;5112678;28;20134;-42
2022/03/20 08:27:29;;;;;;;6.25;4.93;;;;;;;12.54;20.46;95322.72;5113000;28;20063;-42
2022/03/20 08:29:57;;;;;;;8.30;4.80;;;;;;;12.34;20.08;95314.81;5112920;28;20516;-42
2022/03/20 08:32:23;;;;;;;9.27;4.93;;;;;;;12.01;19.29;95313.78;5112881;28;20065;-42
2022/03/20 08:34:50;;;;;;;10.15;5.35;;;;;;;11.30;20.38;95314.88;5112525;28;20429;-42
2022/03/20 08:37:16;;;;;;;10.60;5.20;;;;;;;11.49;20.21;95318.56;5112544;28;20030;-41
2022/03/20 08:39:42;;;;;;;8.30;5.47;;;;;;;10.99;19.99;95320.72;5112460;28;20072;-42
2022/03/20 08:42:07;;;;;;;8.15;5.65;;;;;;;11.28;22.09;95320.88;5112588;28;20066;-41
2022/03/20 08:44:33;;;;;;;9.00;6.10;;;;;;;12.33;20.23;95307.75;5112765;28;20063;-41
2022/03/20 08:46:58;;;;;;;8.95;4.88;;;;;;;11.63;19.31;95314.69;5112688;28;20020;-41
2022/03/20 08:49:24;;;;;;;10.80;5.28;;;;;;;11.53;20.78;95305.22;5111776;28;20088;-42
2022/03/20 08:51:50;;;;;;;8.77;7.20;;;;;;;12.08;20.84;95309.72;5112187;28;20417;-42
2022/03/20 08:54:15;;;;;;;5.95;4.53;;;;;;;12.65;19.63;95305.97;5112472;28;20028;-41
2022/03/20 08:56:41;;;;;;;8.18;5.93;;;;;;;12.91;19.87;95306.97;5094327;28;20066;-42
2022/03/20 08:59:06;;;;;;;5.75;4.68;;;;;;;13.27;18.31;95293.78;5091799;28;20089;-42
2022/03/20 09:01:32;;;;;;;6.28;4.60;;;;;;;13.03;20.04;95302.09;5091696;28;20020;-41
2022/03/20 09:03:58;;;;;;;6.70;5.03;;;;;;;13.68;19.74;95299.06;5091671;28;20135;-42
2022/03/20 09:06:23;;;;;;;6.55;4.60;;;;;;;12.08;19.88;95304.91;5091535;28;20022;-42
2022/03/20 09:08:50;;;;;;;6.78;4.80;;;;;;;12.68;20.39;95302.16;5107795;28;20055;-42
2022/03/20 09:11:16;;;;;;;8.35;5.30;;;;;;;13.26;20.39;95295.03;5098963;28;20088;-41
2022/03/20 09:13:42;;;;;;;5.53;4.57;;;;;;;13.43;18.83;95287.25;5091666;28;20098;-42
2022/03/20 09:19:07;;;;;;;5.55;4.32;;;;;;;13.15;18.98;95291.63;5091607;28;20027;-41
2022/03/20 09:21:37;;;;;;;6.15;5.10;;;;;;;13.24;19.82;95288.50;5091654;28;20039;-42
2022/03/20 09:24:04;;;;;;;7.25;4.35;;;;;;;14.07;17.84;95288.16;5091513;28;20493;-42
2022/03/20 09:26:30;;;;;;;10.55;4.70;;;;;;;13.97;18.75;95261.31;5091482;28;20028;-41
2022/03/20 09:28:55;;;;;;;5.47;4.85;;;;;;;14.64;18.42;95288.81;5091113;28;20027;-41
2022/03/20 09:31:21;;;;;;;5.05;4.20;;;;;;;14.01;18.48;95287.47;5091018;28;20035;-42
2022/03/20 09:33:46;;;;;;;5.25;4.72;;;;;;;13.78;19.11;95272.41;5091444;28;20103;-42
2022/03/20 09:36:12;;;;;;;5.63;4.10;;;;;;;14.20;19.73;95273.59;5091289;28;20032;-41
2022/03/20 09:38:38;;;;;;;5.07;4.15;;;;;;;13.66;19.46;95280.13;5089973;28;20036;-41
2022/03/20 09:41:08;;;;;;;8.05;4.63;;;;;;;13.25;18.91;95273.38;5102241;28;20096;-41
2022/03/20 09:43:35;;;;;;;7.47;4.35;;;;;;;13.40;19.41;95273.69;5111515;28;20058;-41
2022/03/20 09:46:00;;;;;;;6.78;4.95;;;;;;;13.69;18.89;95270.03;5111282;28;20023;-41
2022/03/20 09:48:27;;;;;;;4.80;4.00;;;;;;;13.59;19.14;95269.66;5111533;28;20030;-41
2022/03/20 09:50:53;;;;;;;5.32;4.32;;;;;;;14.21;18.85;95264.72;5111060;28;20416;-41
2022/03/20 09:53:19;;;;;;;7.07;4.35;;;;;;;14.36;18.65;95264.25;5111446;28;20024;-41
2022/03/20 09:55:46;;;;;;;5.13;4.05;;;;;;;14.31;18.73;95260.28;5100131;28;20027;-42
2022/03/20 09:58:11;;;;;;;5.70;4.10;;;;;;;13.78;17.37;95263.34;5090648;28;20051;-42
2022/03/20 10:00:37;;;;;;;8.00;5.28;;;;;;;13.14;19.72;95256.84;5090677;28;20455;-42
2022/03/20 10:03:19;;;;;;;7.28;4.22;;;;;;;12.92;19.23;95253.03;5090599;28;20030;-42
2022/03/20 10:05:46;;;;;;;6.45;3.83;;;;;;;12.80;18.35;95264.75;5090847;28;20106;-41
2022/03/20 10:08:17;;;;;;;5.65;4.00;;;;;;;13.78;19.80;95260.56;5106628;28;20028;-42
2022/03/20 10:10:43;;;;;;;5.03;3.97;;;;;;;13.29;19.07;95263.50;5098498;28;20023;-41
2022/03/20 10:13:13;;;;;;;6.30;4.30;;;;;;;13.13;19.38;95258.88;5110865;28;20030;-42
2022/03/20 10:15:41;;;;;;;6.03;4.93;;;;;;;12.87;18.87;95253.09;5111116;28;20523;-42
2022/03/20 10:18:11;;;;;;;13.20;7.93;;;;;;;12.63;18.94;95256.59;5109554;28;20557;-42
2022/03/20 10:20:48;;;;;;;10.32;5.55;;;;;;;12.82;18.79;95249.09;5110770;28;20083;-42
2022/03/20 10:23:34;;;;;;;7.75;4.93;;;;;;;13.20;18.23;95252.00;5110727;28;20496;-42
2022/03/20 10:26:08;;;;;;;7.95;5.20;;;;;;;13.39;19.64;95244.44;5110667;28;20023;-41
2022/03/20 10:28:36;;;;;;;7.75;4.68;;;;;;;12.61;20.00;95245.28;5110730;28;20024;-42
2022/03/20 10:31:04;;;;;;;10.23;7.70;;;;;;;13.30;19.64;95247.56;5110800;28;20390;-41
2022/03/20 10:33:29;;;;;;;6.55;4.28;;;;;;;13.30;18.29;95259.44;5110597;28;20491;-42
2022/03/20 10:36:15;;;;;;;6.63;4.38;;;;;;;13.09;20.51;95254.91;5110537;28;20107;-41
2022/03/20 10:38:43;;;;;;;7.93;5.03;;;;;;;13.23;19.52;95237.81;5110857;28;20103;-41
2022/03/20 10:41:23;;;;;;;4.77;3.93;;;;;;;12.57;19.21;95246.84;5096996;28;20056;-41
2022/03/20 10:43:50;;;;;;;4.95;4.10;;;;;;;12.39;19.50;95251.03;5090443;28;20444;-42
2022/03/20 10:46:23;;;;;;;13.82;8.10;;;;;;;11.04;21.65;95253.63;5090081;28;20060;-42
2022/03/20 10:48:52;;;;;;;13.68;7.40;;;;;;;10.80;20.78;95259.00;5090454;28;20089;-42
2022/03/20 10:51:40;;;;;;;6.53;4.40;;;;;;;10.84;21.17;95254.72;5090041;28;20493;-42
2022/03/20 10:54:11;;;;;;;6.70;4.65;;;;;;;10.80;23.03;95250.69;5090134;28;20032;-42
2022/03/20 10:56:50;;;;;;;9.52;4.60;;;;;;;11.60;22.40;95240.28;5107019;28;20032;-42
2022/03/20 10:59:16;;;;;;;7.57;4.80;;;;;;;11.78;22.25;95245.25;5110614;28;20024;-42
2022/03/20 11:01:44;;;;;;;6.78;4.32;;;;;;;11.63;20.81;95242.78;5110201;28;20020;-42
2022/03/20 11:04:11;;;;;;;9.05;5.90;;;;;;;11.61;22.22;95245.31;5110351;28;20034;-42
2022/03/20 11:06:37;;;;;;;6.32;4.60;;;;;;;11.92;19.56;95231.03;5110543;28;20026;-42
2022/03/20 11:09:04;;;;;;;10.10;6.07;;;;;;;11.65;19.77;95229.19;5110204;28;20035;-42
2022/03/20 11:11:34;;;;;;;10.93;6.15;;;;;;;12.02;21.96;95207.31;5096530;28;20028;-42
2022/03/20 11:14:00;;;;;;;10.13;4.93;;;;;;;12.33;21.35;95217.09;5094109;28;20050;-42
2022/03/20 11:16:26;;;;;;;21.20;7.95;;;;;;;12.79;20.67;95216.13;5092576;28;20039;-42
2022/03/20 11:18:53;;;;;;;9.32;4.97;;;;;;;12.63;19.38;95215.03;5093627;28;20035;-42
2022/03/20 11:21:23;;;;;;;5.38;3.90;;;;;;;11.86;20.08;95219.28;5093695;28;20024;-43
2022/03/20 11:23:51;;;;;;;7.78;4.57;;;;;;;11.41;20.81;95215.25;5092683;28;20031;-42
2022/03/20 11:26:20;;;;;;;5.18;3.85;;;;;;;10.95;20.45;95224.28;5093580;28;20031;-42
2022/03/20 11:28:46;;;;;;;7.70;4.63;;;;;;;10.75;21.35;95215.53;5093523;28;20034;-42
2022/03/20 11:31:12;;;;;;;9.85;5.15;;;;;;;10.75;23.58;95201.72;5092162;28;20543;-41
2022/03/20 11:33:38;;;;;;;5.57;4.55;;;;;;;10.74;22.90;95217.56;5093722;28;20028;-42
2022/03/20 11:36:03;;;;;;;5.07;4.07;;;;;;;10.93;21.63;95209.47;5093624;28;20557;-42
2022/03/20 11:38:31;;;;;;;8.13;4.97;;;;;;;10.72;20.92;95205.53;5093690;28;20081;-42
2022/03/20 11:41:23;;;;;;;4.90;3.78;;;;;;;10.80;22.08;95200.97;5103246;28;20055;-42
2022/03/20 11:44:20;;;;;;;5.78;4.00;;;;;;;10.73;20.98;95193.19;5113632;28;20031;-42
2022/03/20 11:47:15;;;;;;;18.38;10.95;;;;;;;10.64;21.96;95186.72;5113571;28;20049;-41
2022/03/20 11:49:40;;;;;;;9.70;6.07;;;;;;;10.83;21.57;95180.63;5113547;28;20027;-42
2022/03/20 11:52:14;;;;;;;6.80;4.32;;;;;;;10.57;22.87;95186.47;5113689;28;20430;-42
2022/03/20 11:54:39;;;;;;;6.03;4.00;;;;;;;10.60;20.89;95191.75;5112938;28;20116;-42
2022/03/20 11:57:23;;;;;;;9.20;6.45;;;;;;;10.92;21.77;95170.00;5105023;28;20130;-42
2022/03/20 11:59:49;;;;;;;4.57;3.75;;;;;;;10.83;21.82;95166.81;5113297;28;20045;-42
2022/03/20 12:02:17;;;;;;;6.95;4.63;;;;;;;10.21;23.18;95173.75;5113552;27;20031;-42
2022/03/20 12:04:57;;;;;;;15.68;7.65;;;;;;;10.03;22.40;95154.97;5113223;28;20020;-42